Time;durP1;ratioP1;P1;durP2;ratioP2;P2;SDS_P1;SDS_P2;PMS_P1;PMS_P2;Temp;Humidity;BMP_temperature;BMP_pressure;BME280_temperature;BME280_humidity;BME280_pressure;Samples;Min_cycle;Max_cycle;Signal;HPM_P1;HPM_P2
2023/03/20 00:00:54;;;;;;;21.20;13.95;;;;;;;11.17;61.38;97853.59;10212833;29;20417;-79
2023/03/20 00:06:51;;;;;;;36.53;22.85;;;;;;;10.99;61.16;97862.78;10178350;29;20048;-79
2023/03/20 00:12:23;;;;;;;40.10;24.95;;;;;;;10.92;61.25;97870.06;10205950;29;20048;-80
2023/03/20 00:17:46;;;;;;;36.42;23.88;;;;;;;10.85;61.78;97868.16;10206383;29;20062;-79
2023/03/20 00:23:07;;;;;;;43.10;24.58;;;;;;;10.79;61.67;97871.25;10204212;29;20144;-80
2023/03/20 00:29:02;;;;;;;34.45;22.33;;;;;;;10.71;62.37;97865.16;10192754;29;20044;-80
2023/03/20 00:34:53;;;;;;;33.78;22.85;;;;;;;10.55;61.75;97856.38;10221422;29;20060;-79
2023/03/20 00:40:45;;;;;;;39.22;22.33;;;;;;;10.41;61.91;97857.44;10202939;29;20052;-79
2023/03/20 00:46:11;;;;;;;30.10;17.33;;;;;;;10.31;62.96;97855.41;10204798;29;20047;-79
2023/03/20 00:52:02;;;;;;;25.60;16.02;;;;;;;10.25;62.94;97859.84;10199185;29;20496;-79
2023/03/20 00:57:58;;;;;;;22.70;13.25;;;;;;;10.19;63.35;97853.81;10218678;29;20056;-79
2023/03/20 01:03:28;;;;;;;19.85;13.35;;;;;;;10.07;64.11;97856.47;10210129;29;20051;-79
2023/03/20 01:09:17;;;;;;;24.10;14.48;;;;;;;9.91;64.05;97861.59;10217939;29;20044;-79
2023/03/20 01:14:38;;;;;;;19.70;13.10;;;;;;;9.73;64.13;97854.72;10197444;29;20048;-79
2023/03/20 01:20:13;;;;;;;20.17;13.68;;;;;;;9.57;64.41;97856.34;10224688;29;20527;-79
2023/03/20 01:27:02;;;;;;;19.35;12.77;;;;;;;9.44;65.90;97866.59;10108809;29;20049;-79
2023/03/20 01:32:30;;;;;;;17.90;11.82;;;;;;;9.35;64.58;97853.38;10075670;29;20084;-79
2023/03/20 01:37:51;;;;;;;21.60;11.95;;;;;;;9.31;65.95;97858.66;10088329;29;20053;-79
2023/03/20 01:43:40;;;;;;;17.98;10.93;;;;;;;9.26;65.65;97850.56;10096719;29;20090;-79
2023/03/20 02:04:43;;;;;;;15.20;9.48;;;;;;;9.37;66.83;97856.34;10236385;29;20043;-80
2023/03/20 02:10:09;;;;;;;15.43;10.57;;;;;;;9.38;67.18;97854.28;10192023;29;20051;-79
2023/03/20 02:16:02;;;;;;;15.57;9.48;;;;;;;9.33;66.96;97858.81;10194470;29;20055;-79
2023/03/20 02:22:38;;;;;;;15.13;9.63;;;;;;;9.33;67.64;97846.94;10214049;29;20067;-79
2023/03/20 02:28:44;;;;;;;14.07;8.27;;;;;;;9.30;67.68;97850.88;10209000;29;20047;-79
2023/03/20 02:34:44;;;;;;;11.10;7.63;;;;;;;9.20;68.77;97844.56;10216814;29;20043;-80
2023/03/20 02:40:30;;;;;;;13.45;8.05;;;;;;;9.16;68.62;97847.78;10166140;29;20070;-79
2023/03/20 02:46:42;;;;;;;13.70;8.10;;;;;;;9.06;68.56;97838.66;10222569;29;20054;-79
2023/03/20 02:52:48;;;;;;;12.77;7.43;;;;;;;9.01;69.29;97853.59;10218144;29;20082;-79
2023/03/20 02:58:27;;;;;;;11.40;6.88;;;;;;;8.99;69.62;97847.91;10197283;29;20062;-79
2023/03/20 03:03:52;;;;;;;12.75;6.72;;;;;;;8.93;68.43;97847.44;10194256;29;20040;-79
2023/03/20 03:09:17;;;;;;;13.15;7.78;;;;;;;8.87;70.21;97844.91;10206817;29;20044;-79
2023/03/20 03:15:12;;;;;;;11.88;7.13;;;;;;;8.84;69.98;97838.47;10203180;29;20047;-79
2023/03/20 03:21:37;;;;;;;13.48;7.22;;;;;;;8.81;70.69;97848.00;10203028;29;20056;-79
2023/03/20 03:27:35;;;;;;;;;;;;;;;8.79;70.83;97844.31;10213631;29;20047;-80
2023/03/20 03:33:27;;;;;;;12.63;6.65;;;;;;;8.75;70.35;97844.72;10216152;29;19923;-80
2023/03/20 03:39:56;;;;;;;11.68;7.45;;;;;;;8.85;71.22;97848.28;10178234;29;20060;-79
2023/03/20 03:52:13;;;;;;;14.82;8.35;;;;;;;9.06;70.63;97852.59;10230983;29;20062;-79
2023/03/20 03:58:11;;;;;;;12.90;7.70;;;;;;;9.17;71.13;97857.63;10204794;29;20111;-79
2023/03/20 04:03:37;;;;;;;12.20;7.32;;;;;;;9.25;71.03;97847.06;10212323;29;20040;-80
2023/03/20 04:09:32;;;;;;;12.48;8.00;;;;;;;9.33;71.24;97864.38;10209888;29;20043;-80
2023/03/20 04:15:26;;;;;;;11.95;7.68;;;;;;;9.27;71.29;97858.38;10213219;29;20056;-79
2023/03/20 04:21:24;;;;;;;14.13;8.63;;;;;;;9.24;71.23;97859.50;10211808;29;20047;-79
2023/03/20 04:26:45;;;;;;;12.05;7.78;;;;;;;9.22;71.24;97862.16;10187902;29;20051;-79
2023/03/20 04:32:13;;;;;;;11.60;7.63;;;;;;;9.28;71.21;97861.88;10199433;29;20067;-79
2023/03/20 04:38:23;;;;;;;10.65;7.03;;;;;;;9.35;70.86;97861.72;10212770;28;20059;-79
2023/03/20 04:43:46;;;;;;;11.18;6.75;;;;;;;9.41;70.82;97861.47;10196235;29;20055;-79
2023/03/20 04:49:15;;;;;;;9.73;6.68;;;;;;;9.42;71.08;97865.72;10198213;29;20091;-79
2023/03/20 04:54:35;;;;;;;10.88;7.60;;;;;;;9.46;70.98;97869.53;10196462;29;20048;-79
2023/03/20 04:59:56;;;;;;;10.40;7.03;;;;;;;9.45;70.91;97873.63;10185091;29;20056;-80
2023/03/20 05:05:18;;;;;;;9.38;6.88;;;;;;;9.49;71.12;97887.13;10197346;29;20073;-79
2023/03/20 05:10:39;;;;;;;10.00;6.80;;;;;;;9.53;70.67;97883.91;10196692;29;20050;-79
2023/03/20 05:16:20;;;;;;;9.90;6.45;;;;;;;9.57;70.90;97881.44;10214770;29;20066;-79
2023/03/20 05:22:07;;;;;;;7.10;5.22;;;;;;;9.57;70.52;97884.94;10206734;29;20047;-80
2023/03/20 05:28:14;;;;;;;10.15;5.78;;;;;;;9.64;70.60;97880.53;10140159;29;20045;-79
2023/03/20 05:33:43;;;;;;;8.63;5.07;;;;;;;9.75;70.51;97883.50;10193947;29;20067;-80
2023/03/20 05:39:27;;;;;;;11.38;5.25;;;;;;;9.84;70.35;97879.22;10213584;29;20066;-79
2023/03/20 05:45:05;;;;;;;7.35;4.70;;;;;;;9.96;70.25;97882.91;10197399;29;20047;-79
2023/03/20 05:50:45;;;;;;;7.70;4.72;;;;;;;10.06;70.22;97888.47;10213454;29;20040;-79
2023/03/20 05:56:51;;;;;;;7.45;4.93;;;;;;;10.15;69.58;97895.38;10214188;29;20055;-79
2023/03/20 06:02:20;;;;;;;9.18;5.18;;;;;;;10.20;69.95;97903.41;10210292;29;20054;-79
2023/03/20 06:08:42;;;;;;;7.65;5.35;;;;;;;10.24;69.47;97906.53;10106816;29;20460;-79
2023/03/20 06:14:04;;;;;;;9.57;6.03;;;;;;;10.17;69.29;97910.19;10076497;29;20113;-79
2023/03/20 06:19:31;;;;;;;9.43;6.60;;;;;;;10.13;69.15;97909.88;10077207;29;20093;-79
2023/03/20 06:24:56;;;;;;;7.85;6.45;;;;;;;10.10;69.31;97932.63;10071153;29;20053;-77
2023/03/20 06:30:24;;;;;;;8.95;5.82;;;;;;;10.06;69.36;97927.50;10076189;29;20068;-77
2023/03/20 06:35:48;;;;;;;10.13;6.20;;;;;;;10.02;69.40;97933.50;10107780;29;20111;-77
2023/03/20 06:41:08;;;;;;;9.55;6.32;;;;;;;10.01;69.60;97948.78;10181374;29;20082;-77
2023/03/20 06:46:30;;;;;;;9.73;6.32;;;;;;;10.01;69.46;97940.41;10193559;29;20047;-77
2023/03/20 06:51:52;;;;;;;9.52;6.40;;;;;;;9.96;69.44;97947.03;10193477;29;20047;-77
2023/03/20 06:57:21;;;;;;;11.07;6.35;;;;;;;9.93;69.91;97948.19;10168818;29;20071;-77
2023/03/20 07:02:42;;;;;;;11.27;6.68;;;;;;;9.98;70.18;97952.03;10167281;29;20051;-77
2023/03/20 07:08:06;;;;;;;9.93;5.25;;;;;;;9.96;70.09;97963.78;10180352;29;20040;-77
2023/03/20 07:13:28;;;;;;;10.93;6.43;;;;;;;9.93;70.69;97969.75;10179884;29;20047;-77
2023/03/20 07:18:51;;;;;;;8.27;6.25;;;;;;;9.90;72.91;97968.88;10179061;29;20071;-77
2023/03/20 07:24:12;;;;;;;9.88;6.00;;;;;;;9.93;72.07;97961.41;10166595;29;20044;-77
2023/03/20 07:29:33;;;;;;;9.15;6.32;;;;;;;10.02;72.38;97966.97;10191918;29;20044;-77
2023/03/20 07:34:56;;;;;;;8.30;5.53;;;;;;;10.20;72.29;97972.44;10167383;29;20050;-77
2023/03/20 07:40:18;;;;;;;10.13;5.28;;;;;;;10.35;71.84;97969.38;10181765;29;20186;-77
2023/03/20 07:45:52;;;;;;;9.90;5.78;;;;;;;10.52;71.96;97974.78;10184147;29;20040;-77
2023/03/20 07:51:12;;;;;;;10.88;6.10;;;;;;;10.67;72.01;97978.59;10193938;29;20047;-76
2023/03/20 07:56:33;;;;;;;9.32;5.90;;;;;;;10.79;71.40;97973.84;10181757;29;20050;-77
2023/03/20 08:01:54;;;;;;;9.90;6.35;;;;;;;10.94;71.57;97984.69;10196466;29;20067;-77
2023/03/20 08:07:14;;;;;;;8.82;6.28;;;;;;;11.10;70.73;97991.41;10202829;29;20043;-77
2023/03/20 08:12:36;;;;;;;9.48;5.10;;;;;;;11.47;70.91;97979.91;10202654;29;20051;-77
2023/03/20 08:17:57;;;;;;;7.97;4.90;;;;;;;12.30;70.22;97985.44;10177321;29;20048;-77
2023/03/20 08:23:18;;;;;;;9.05;5.10;;;;;;;13.38;68.43;97980.94;10216702;29;20434;-77
2023/03/20 08:29:08;;;;;;;7.13;4.47;;;;;;;14.62;65.29;97983.88;10220229;29;20059;-77
2023/03/20 08:34:30;;;;;;;6.45;4.78;;;;;;;15.65;62.91;97986.59;10192179;29;20063;-77
2023/03/20 08:39:51;;;;;;;6.57;4.30;;;;;;;18.45;60.89;97986.06;10199585;29;20062;-78
2023/03/20 08:45:12;;;;;;;7.72;4.22;;;;;;;20.92;55.41;97984.97;10167766;29;20099;-77
2023/03/20 08:50:33;;;;;;;5.85;4.53;;;;;;;23.85;52.62;97991.63;10206603;29;20090;-78
2023/03/20 08:55:55;;;;;;;4.03;3.17;;;;;;;33.93;41.41;97993.66;10193840;29;20494;-78
2023/03/20 09:01:16;;;;;;;3.40;2.55;;;;;;;40.60;29.92;97984.66;10181969;29;20126;-80
2023/03/20 09:06:37;;;;;;;3.10;2.40;;;;;;;43.61;21.43;97978.22;10179687;29;20055;-81
2023/03/20 09:11:57;;;;;;;4.05;2.28;;;;;;;44.24;16.69;97965.44;10178864;29;20074;-80
2023/03/20 09:17:18;;;;;;;3.10;2.10;;;;;;;44.86;14.28;97971.59;10178088;29;20055;-81
2023/03/20 09:22:41;;;;;;;2.95;1.45;;;;;;;45.05;13.06;97977.66;10192148;29;20070;-81
2023/03/20 09:28:02;;;;;;;1.90;1.30;;;;;;;46.12;11.60;97970.91;10178456;29;20107;-81
2023/03/20 09:33:23;;;;;;;3.28;1.48;;;;;;;46.61;11.07;97967.31;10178591;29;20125;-81
2023/03/20 09:38:44;;;;;;;1.95;1.20;;;;;;;47.32;9.86;97958.94;10191093;29;20063;-81
2023/03/20 09:44:10;;;;;;;1.55;1.20;;;;;;;47.18;9.57;97957.78;10164986;29;20048;-81
2023/03/20 09:49:43;;;;;;;4.15;1.00;;;;;;;45.93;8.64;97965.63;10190877;29;20075;-81
2023/03/20 09:55:14;;;;;;;3.60;1.00;;;;;;;46.56;9.15;97955.13;10218235;29;20106;-81
2023/03/20 10:00:36;;;;;;;4.93;1.20;;;;;;;46.87;8.56;97943.97;10178025;29;20067;-80
2023/03/20 10:06:04;;;;;;;2.75;0.73;;;;;;;47.18;8.08;97945.25;10177354;29;20115;-81
2023/03/20 10:11:56;;;;;;;1.63;0.80;;;;;;;47.51;7.10;97947.03;10190591;29;20058;-80
2023/03/20 10:17:43;;;;;;;2.17;0.68;;;;;;;47.53;7.79;97943.94;10202757;29;20119;-82
2023/03/20 10:23:33;;;;;;;0.80;0.47;;;;;;;48.46;6.55;97943.81;10176381;29;20205;-80
2023/03/20 10:29:00;;;;;;;1.25;0.40;;;;;;;47.91;6.73;97935.81;10189701;29;20079;-81
2023/03/20 10:34:43;;;;;;;3.85;0.80;;;;;;;49.01;6.75;97936.22;10176827;29;20050;-82
2023/03/20 10:40:27;;;;;;;2.05;0.60;;;;;;;50.04;5.72;97941.25;10202397;29;20059;-81
2023/03/20 10:45:58;;;;;;;2.00;0.40;;;;;;;50.05;5.97;97927.09;10177378;29;20067;-81
2023/03/20 10:51:20;;;;;;;1.17;0.50;;;;;;;49.61;5.29;97931.75;10202789;29;20107;-80
2023/03/20 10:56:44;;;;;;;0.75;0.40;;;;;;;48.62;5.71;97924.66;10175517;29;20043;-79
2023/03/20 11:02:10;;;;;;;0.70;0.47;;;;;;;42.55;7.89;97914.16;10175028;29;20043;-80
2023/03/20 11:07:32;;;;;;;1.80;0.40;;;;;;;41.30;8.11;97910.88;10175169;29;20047;-81
2023/03/20 11:12:53;;;;;;;1.40;0.77;;;;;;;37.39;10.57;97905.88;10174844;29;20051;-78
2023/03/20 11:18:13;;;;;;;1.83;0.70;;;;;;;32.63;12.56;97907.94;10174324;29;20047;-78
2023/03/20 11:23:34;;;;;;;3.08;0.65;;;;;;;28.96;15.67;97910.13;10188080;29;20074;-78
2023/03/20 11:28:55;;;;;;;;;;;;;;;26.41;19.83;97905.84;10174834;29;20047;-78
2023/03/20 11:34:25;;;;;;;2.53;0.60;;;;;;;24.99;19.47;97905.75;10200536;29;19962;-77
2023/03/20 11:39:58;;;;;;;2.55;0.90;;;;;;;24.52;21.61;97901.53;10174020;29;20060;-77
2023/03/20 11:45:18;;;;;;;2.60;0.90;;;;;;;24.61;21.76;97888.84;10174757;29;20055;-77
2023/03/20 11:50:50;;;;;;;4.13;0.68;;;;;;;25.60;22.61;97886.50;10186510;29;20050;-77
2023/03/20 11:56:25;;;;;;;1.27;0.65;;;;;;;26.14;21.44;97873.44;10174342;29;20055;-77
2023/03/20 12:01:51;;;;;;;2.15;0.73;;;;;;;25.84;21.55;97880.31;10173932;29;20409;-77
2023/03/20 12:07:17;;;;;;;1.33;0.50;;;;;;;24.89;22.80;97882.06;10173743;29;20054;-77
2023/03/20 12:12:48;;;;;;;1.85;0.68;;;;;;;23.93;23.57;97880.59;10186384;29;20048;-77
2023/03/20 12:18:39;;;;;;;2.30;0.80;;;;;;;22.83;25.24;97886.97;10187031;29;20051;-77
2023/03/20 12:24:00;;;;;;;2.10;0.60;;;;;;;21.70;27.08;97891.38;10187967;29;20063;-77
2023/03/20 12:30:05;;;;;;;1.40;0.40;;;;;;;21.08;29.65;97908.13;10185899;29;20080;-77
2023/03/20 12:35:30;;;;;;;2.53;0.25;;;;;;;20.52;29.12;97902.91;10074044;29;20072;-78
2023/03/20 12:41:12;;;;;;;5.53;0.40;;;;;;;20.90;30.08;97885.63;10186877;29;20087;-76
2023/03/20 12:46:40;;;;;;;0.70;0.20;;;;;;;21.19;29.60;97878.63;10198074;29;20044;-76
2023/03/20 12:52:08;;;;;;;4.15;0.30;;;;;;;21.22;29.87;97887.91;10173961;29;20051;-77
2023/03/20 12:57:52;;;;;;;1.50;0.30;;;;;;;21.51;29.66;97869.56;10177292;29;20514;-77
2023/03/20 13:03:36;;;;;;;1.85;0.30;;;;;;;21.54;30.86;97865.41;10202792;29;20114;-76
2023/03/20 13:09:24;;;;;;;1.80;0.47;;;;;;;21.29;30.88;97864.75;10189536;29;20076;-76
2023/03/20 13:15:13;;;;;;;2.80;0.70;;;;;;;20.64;31.59;97870.66;10189169;29;20598;-76
2023/03/20 13:20:54;;;;;;;2.63;0.80;;;;;;;20.10;32.15;97848.44;10201543;29;20074;-74
2023/03/20 13:26:24;;;;;;;3.58;0.95;;;;;;;19.62;33.29;97847.56;10202167;29;20079;-76
2023/03/20 13:31:56;;;;;;;4.20;0.80;;;;;;;19.38;34.54;97847.44;10201770;29;20040;-76
2023/03/20 13:37:26;;;;;;;2.97;0.90;;;;;;;19.49;34.97;97829.41;10176102;29;20769;-76
2023/03/20 13:43:21;;;;;;;1.65;0.80;;;;;;;19.91;35.20;97829.41;10174061;29;20075;-76
2023/03/20 13:48:42;;;;;;;2.72;0.90;;;;;;;20.32;34.60;97819.34;10199346;29;20511;-77
2023/03/20 13:54:31;;;;;;;2.83;0.80;;;;;;;20.81;34.71;97822.25;10191037;29;20107;-76
2023/03/20 13:59:55;;;;;;;1.98;0.80;;;;;;;21.08;33.85;97812.34;10190633;29;20059;-76
2023/03/20 14:05:21;;;;;;;1.83;0.57;;;;;;;21.03;33.50;97810.78;10189357;29;20486;-76
2023/03/20 14:10:42;;;;;;;5.88;0.65;;;;;;;20.82;33.70;97815.19;10188273;29;20047;-76
2023/03/20 14:16:06;;;;;;;2.40;0.68;;;;;;;20.55;33.19;97818.63;10175982;29;20051;-74
2023/03/20 14:21:27;;;;;;;1.30;0.50;;;;;;;20.25;32.79;97813.47;10176745;29;20067;-74
2023/03/20 14:27:13;;;;;;;0.50;0.20;;;;;;;20.19;32.79;97804.81;10176409;29;20064;-74
2023/03/20 14:32:35;;;;;;;0.68;0.20;;;;;;;20.07;31.80;97807.25;10189029;29;20043;-74
2023/03/20 14:38:05;;;;;;;1.60;0.30;;;;;;;20.05;32.05;97801.50;10163083;29;20047;-74
2023/03/20 14:43:42;;;;;;;0.40;0.20;;;;;;;20.21;31.42;97809.81;10175493;29;20066;-74
2023/03/20 14:49:42;;;;;;;1.20;0.20;;;;;;;20.25;31.73;97810.63;10218075;29;20043;-75
2023/03/20 14:55:16;;;;;;;2.40;0.20;;;;;;;19.98;31.50;97806.28;10224948;28;20055;-76
2023/03/20 15:00:46;;;;;;;1.15;0.28;;;;;;;19.69;31.64;97795.44;10227961;28;20114;-78
2023/03/20 15:06:07;;;;;;;0.88;0.30;;;;;;;19.40;32.01;97799.41;10227686;29;20511;-77
2023/03/20 15:11:27;;;;;;;1.73;0.52;;;;;;;19.11;32.18;97789.22;10213352;28;20063;-75
2023/03/20 15:16:51;;;;;;;1.30;0.32;;;;;;;18.75;32.30;97800.69;10200680;29;20466;-75
2023/03/20 15:22:17;;;;;;;0.95;0.30;;;;;;;18.37;32.42;97799.94;10214544;28;20040;-75
2023/03/20 15:27:38;;;;;;;1.02;0.40;;;;;;;18.02;32.59;97795.78;10200878;28;20466;-75
2023/03/20 15:32:59;;;;;;;2.88;0.40;;;;;;;17.72;32.77;97803.06;10213591;28;20508;-77
2023/03/20 15:38:20;;;;;;;1.15;0.32;;;;;;;17.48;32.76;97804.88;10200464;28;20055;-80
2023/03/20 15:44:18;;;;;;;1.42;0.50;;;;;;;17.28;33.35;97802.66;10208195;29;20051;-79
2023/03/20 15:49:40;;;;;;;3.38;0.40;;;;;;;17.20;33.41;97798.75;10174482;29;20044;-79
2023/03/20 15:55:06;;;;;;;2.08;0.40;;;;;;;17.15;33.79;97803.47;10175239;29;20048;-79
2023/03/20 16:00:38;;;;;;;1.08;0.43;;;;;;;17.14;33.95;97813.31;10174751;29;20043;-78
2023/03/20 16:05:59;;;;;;;2.42;0.70;;;;;;;17.07;34.28;97805.94;10187871;29;20048;-78
2023/03/20 16:20:29;;;;;;;0.63;0.30;;;;;;;16.78;34.85;97816.00;10220660;29;20044;-78
2023/03/20 16:25:58;;;;;;;1.60;0.30;;;;;;;16.73;34.95;97820.00;10186555;29;20834;-78
2023/03/20 16:39:01;;;;;;;1.35;0.40;;;;;;;16.46;36.22;97834.22;10210382;29;20084;-75
2023/03/20 16:44:28;;;;;;;2.35;0.40;;;;;;;16.34;36.15;97839.31;10200810;29;20410;-76
2023/03/20 16:50:15;;;;;;;2.50;0.30;;;;;;;16.19;36.40;97846.34;10203764;29;20438;-75
2023/03/20 17:43:01;;;;;;;2.90;0.80;;;;;;;15.15;39.10;97867.31;10234877;29;20039;-77
2023/03/20 17:48:25;;;;;;;5.55;0.88;;;;;;;15.11;39.79;97874.78;10192683;29;20055;-76
2023/03/20 17:54:18;;;;;;;2.25;0.90;;;;;;;15.02;40.29;97876.44;10199749;29;20545;-76
2023/03/20 18:08:21;;;;;;;3.35;2.10;;;;;;;14.89;41.10;97882.78;10227416;29;20043;-78
2023/03/20 18:14:46;;;;;;;4.40;2.50;;;;;;;14.83;41.69;97886.00;10198899;29;20475;-78
2023/03/20 18:20:45;;;;;;;4.93;2.42;;;;;;;14.77;42.10;97888.50;10200023;29;20048;-76
2023/03/20 18:35:43;;;;;;;4.65;1.70;;;;;;;14.49;42.53;97898.94;10225243;29;20109;-78
2023/03/20 18:49:37;;;;;;;5.50;2.72;;;;;;;14.12;42.97;97895.44;10217819;29;20087;-76
2023/03/20 18:55:05;;;;;;;4.57;2.47;;;;;;;13.96;43.56;97889.63;10179662;29;20513;-76
2023/03/20 19:00:38;;;;;;;4.00;2.20;;;;;;;13.82;43.75;97888.84;10178055;29;20074;-75
2023/03/20 19:06:28;;;;;;;4.50;2.20;;;;;;;13.81;44.36;97896.53;10189760;29;20053;-75
2023/03/20 19:11:49;;;;;;;3.75;2.00;;;;;;;13.77;44.03;97890.66;10194590;29;20111;-75
2023/03/20 19:17:10;;;;;;;2.97;1.80;;;;;;;13.77;44.29;97889.94;10196651;29;20068;-77
2023/03/20 19:31:38;;;;;;;4.00;2.15;;;;;;;13.81;44.84;97884.56;10224309;29;20055;-77
2023/03/20 19:45:23;;;;;;;3.15;2.33;;;;;;;13.66;45.61;97880.22;10223842;29;20078;-76
2023/03/20 19:51:27;;;;;;;4.97;2.38;;;;;;;13.61;46.13;97886.94;10183326;29;20059;-77
2023/03/20 19:56:57;;;;;;;3.60;2.53;;;;;;;13.56;45.92;97888.75;10202552;29;20521;-76
2023/03/20 20:02:22;;;;;;;4.28;2.63;;;;;;;13.59;46.30;97892.41;10176944;29;20769;-75
2023/03/20 20:07:43;;;;;;;5.53;3.58;;;;;;;13.60;46.38;97893.88;10176213;29;20052;-76
2023/03/20 20:13:27;;;;;;;5.88;3.00;;;;;;;13.59;46.35;97887.53;10197273;29;20130;-76
2023/03/20 20:19:23;;;;;;;5.82;3.17;;;;;;;13.60;46.74;97893.88;10188809;29;20056;-76
2023/03/20 20:24:49;;;;;;;4.90;2.20;;;;;;;13.54;47.02;97896.34;10190729;29;20076;-80
2023/03/20 20:30:17;;;;;;;3.55;2.15;;;;;;;13.52;47.75;97888.53;10202367;29;20140;-77
2023/03/20 20:35:45;;;;;;;3.78;2.35;;;;;;;13.52;47.62;97896.22;10182010;29;20058;-77
2023/03/20 20:41:32;;;;;;;5.53;2.40;;;;;;;13.46;47.65;97886.09;10187010;29;20052;-77
2023/03/20 20:47:22;;;;;;;3.38;2.20;;;;;;;13.44;47.82;97885.25;10192803;29;20052;-77
2023/03/20 20:52:43;;;;;;;3.67;2.20;;;;;;;13.39;48.10;97889.88;10183350;29;20443;-77
2023/03/20 20:58:07;;;;;;;3.45;2.10;;;;;;;13.35;48.40;97886.84;10181204;29;20055;-77
2023/03/20 21:03:27;;;;;;;4.07;2.55;;;;;;;13.35;48.39;97886.84;10195149;29;20076;-78
2023/03/20 21:08:48;;;;;;;4.78;2.33;;;;;;;13.28;48.22;97887.84;10181615;29;20494;-78
2023/03/20 21:14:09;;;;;;;5.25;2.67;;;;;;;13.24;48.62;97882.00;10187802;29;20429;-77
2023/03/20 21:19:35;;;;;;;9.30;2.58;;;;;;;13.18;49.44;97884.41;10188918;29;20055;-77
2023/03/20 21:24:56;;;;;;;3.40;2.13;;;;;;;13.12;49.77;97886.84;10174636;29;20076;-77
2023/03/20 21:30:35;;;;;;;4.10;2.28;;;;;;;13.03;49.79;97890.50;10181565;29;20044;-77
2023/03/20 21:35:58;;;;;;;2.58;1.83;;;;;;;12.97;50.28;97882.47;10188161;29;20059;-77
2023/03/20 21:41:19;;;;;;;2.88;1.67;;;;;;;12.86;50.86;97878.31;10200668;29;20071;-77
2023/03/20 21:46:40;;;;;;;3.08;1.90;;;;;;;12.79;50.94;97870.88;10187104;29;20546;-77
2023/03/20 21:52:22;;;;;;;3.70;2.03;;;;;;;12.68;51.45;97880.00;10182208;29;20051;-77
2023/03/20 21:58:03;;;;;;;2.88;2.00;;;;;;;12.57;51.71;97877.94;10205310;29;20498;-77
2023/03/20 22:03:48;;;;;;;3.13;2.20;;;;;;;12.52;52.49;97881.81;10193502;29;20055;-77
2023/03/20 22:09:30;;;;;;;3.65;2.42;;;;;;;12.45;52.68;97879.94;10180992;29;20059;-77
2023/03/20 22:15:11;;;;;;;3.85;2.33;;;;;;;12.36;52.92;97870.34;10194100;29;20043;-77
2023/03/20 22:20:59;;;;;;;3.10;2.28;;;;;;;12.22;53.74;97891.81;10192342;29;20067;-77
2023/03/20 22:26:39;;;;;;;4.53;2.10;;;;;;;12.11;54.45;97886.94;10192133;29;20050;-77
2023/03/20 22:32:20;;;;;;;4.93;2.25;;;;;;;12.03;54.96;97892.72;10205012;29;20067;-77
2023/03/20 22:38:04;;;;;;;3.83;2.63;;;;;;;11.84;55.71;97890.81;10202687;29;20080;-77
2023/03/20 22:43:45;;;;;;;2.95;2.05;;;;;;;11.70;56.37;97889.88;10189939;29;20058;-77
2023/03/20 22:49:30;;;;;;;5.38;2.33;;;;;;;11.60;56.34;97892.03;10191784;29;20466;-77
2023/03/20 22:54:51;;;;;;;5.40;2.50;;;;;;;11.51;57.02;97885.16;10186535;29;20102;-77
2023/03/20 23:00:13;;;;;;;4.15;2.80;;;;;;;11.43;57.16;97884.63;10210257;29;20398;-77
2023/03/20 23:05:36;;;;;;;4.55;2.40;;;;;;;11.32;56.93;97888.06;10185084;29;20047;-77
2023/03/20 23:11:25;;;;;;;4.35;2.72;;;;;;;11.35;57.81;97900.84;10196894;29;20055;-76
2023/03/20 23:16:47;;;;;;;4.82;3.10;;;;;;;11.35;57.76;97898.06;10170152;29;20458;-77
2023/03/20 23:22:07;;;;;;;4.45;3.00;;;;;;;11.31;58.19;97900.59;10196489;29;20071;-77
2023/03/20 23:27:29;;;;;;;4.07;3.05;;;;;;;11.25;58.54;97900.16;10184112;29;20040;-77
2023/03/20 23:33:18;;;;;;;4.60;3.10;;;;;;;11.25;58.88;97902.97;10202627;29;20486;-77
2023/03/20 23:39:16;;;;;;;7.32;3.00;;;;;;;11.18;58.98;97896.22;10194253;29;20048;-77
2023/03/20 23:53:17;;;;;;;6.93;3.72;;;;;;;11.13;60.19;97886.13;10223108;29;20040;-77
2023/03/20 23:58:40;;;;;;;;;;;;;;;11.06;60.78;97895.41;10196023;29;20047;-77
